Аэропорт: Ширак. Гюмри

ICAO: UDSG

METAR:
2019-09-16 01:30:00
UDSG 160130Z 30001KT 9999 VCTS SCT040CB 11/08 Q1021 R02/////// NOSIG
METAR:
2019-09-15 23:01:00
TAF UDSG 152301Z 1600/1624 06010KT 9999 FEW050 TEMPO 1600/1609 VRB20KT -TSRA BKN040CB